sensor_id;sensor_type;location;lat;lon;timestamp;temperature;humidity
12434;DHT22;6281;49.038;8.372;2023-08-17T00:02:12;20.50;99.90
12434;DHT22;6281;49.038;8.372;2023-08-17T00:04:39;20.40;99.90
12434;DHT22;6281;49.038;8.372;2023-08-17T00:07:06;20.50;99.90
12434;DHT22;6281;49.038;8.372;2023-08-17T00:09:33;20.50;99.90
12434;DHT22;6281;49.038;8.372;2023-08-17T00:12:00;20.60;99.90
12434;DHT22;6281;49.038;8.372;2023-08-17T00:14:26;20.60;99.90
12434;DHT22;6281;49.038;8.372;2023-08-17T00:16:53;20.70;99.90
12434;DHT22;6281;49.038;8.372;2023-08-17T00:19:21;20.50;99.90
12434;DHT22;6281;49.038;8.372;2023-08-17T00:21:48;20.40;99.90
12434;DHT22;6281;49.038;8.372;2023-08-17T00:24:15;20.30;99.90
12434;DHT22;6281;49.038;8.372;2023-08-17T00:26:42;20.30;99.90
12434;DHT22;6281;49.038;8.372;2023-08-17T00:29:08;20.40;99.90
12434;DHT22;6281;49.038;8.372;2023-08-17T00:31:35;20.50;99.90
12434;DHT22;6281;49.038;8.372;2023-08-17T00:34:02;20.40;99.90
12434;DHT22;6281;49.038;8.372;2023-08-17T00:36:30;20.20;99.90
12434;DHT22;6281;49.038;8.372;2023-08-17T00:38:57;20.10;99.90
12434;DHT22;6281;49.038;8.372;2023-08-17T00:41:24;20.10;99.90
12434;DHT22;6281;49.038;8.372;2023-08-17T00:43:51;20.00;99.90
12434;DHT22;6281;49.038;8.372;2023-08-17T00:46:18;20.10;99.90
12434;DHT22;6281;49.038;8.372;2023-08-17T00:48:45;20.10;99.90
12434;DHT22;6281;49.038;8.372;2023-08-17T00:51:12;20.00;99.90
12434;DHT22;6281;49.038;8.372;2023-08-17T00:53:41;20.20;99.90
12434;DHT22;6281;49.038;8.372;2023-08-17T00:56:08;20.10;99.90
12434;DHT22;6281;49.038;8.372;2023-08-17T00:58:35;20.00;99.90
12434;DHT22;6281;49.038;8.372;2023-08-17T01:01:02;19.90;99.90
12434;DHT22;6281;49.038;8.372;2023-08-17T01:03:29;19.90;99.90
12434;DHT22;6281;49.038;8.372;2023-08-17T01:05:56;20.00;99.90
12434;DHT22;6281;49.038;8.372;2023-08-17T01:08:23;20.10;99.90
12434;DHT22;6281;49.038;8.372;2023-08-17T01:10:57;20.00;99.90
12434;DHT22;6281;49.038;8.372;2023-08-17T01:13:31;20.10;99.90
12434;DHT22;6281;49.038;8.372;2023-08-17T01:16:04;20.10;99.90
12434;DHT22;6281;49.038;8.372;2023-08-17T01:18:34;19.90;99.90
12434;DHT22;6281;49.038;8.372;2023-08-17T01:21:02;20.00;99.90
12434;DHT22;6281;49.038;8.372;2023-08-17T01:23:33;20.00;99.90
12434;DHT22;6281;49.038;8.372;2023-08-17T01:26:00;20.00;99.90
12434;DHT22;6281;49.038;8.372;2023-08-17T01:28:27;19.80;99.90
12434;DHT22;6281;49.038;8.372;2023-08-17T01:30:57;19.60;99.90
12434;DHT22;6281;49.038;8.372;2023-08-17T01:33:28;19.70;99.90
12434;DHT22;6281;49.038;8.372;2023-08-17T01:36:04;19.80;99.90
12434;DHT22;6281;49.038;8.372;2023-08-17T01:38:33;19.80;99.90
12434;DHT22;6281;49.038;8.372;2023-08-17T01:41:01;19.80;99.90
12434;DHT22;6281;49.038;8.372;2023-08-17T01:43:28;19.80;99.90
12434;DHT22;6281;49.038;8.372;2023-08-17T01:45:55;19.80;99.90
12434;DHT22;6281;49.038;8.372;2023-08-17T01:48:22;19.80;99.90
12434;DHT22;6281;49.038;8.372;2023-08-17T01:50:49;19.90;99.90
12434;DHT22;6281;49.038;8.372;2023-08-17T01:53:16;19.80;99.90
12434;DHT22;6281;49.038;8.372;2023-08-17T01:55:44;19.80;99.90
12434;DHT22;6281;49.038;8.372;2023-08-17T01:58:10;19.80;99.90
12434;DHT22;6281;49.038;8.372;2023-08-17T02:00:37;19.80;99.90
12434;DHT22;6281;49.038;8.372;2023-08-17T02:03:04;19.70;99.90
12434;DHT22;6281;49.038;8.372;2023-08-17T02:05:31;19.80;99.90
12434;DHT22;6281;49.038;8.372;2023-08-17T02:07:58;19.70;99.90
12434;DHT22;6281;49.038;8.372;2023-08-17T02:10:24;19.70;99.90
12434;DHT22;6281;49.038;8.372;2023-08-17T02:12:53;19.70;99.90
12434;DHT22;6281;49.038;8.372;2023-08-17T02:15:19;19.70;99.90
12434;DHT22;6281;49.038;8.372;2023-08-17T02:17:46;19.70;99.90
12434;DHT22;6281;49.038;8.372;2023-08-17T02:20:13;19.50;99.90
12434;DHT22;6281;49.038;8.372;2023-08-17T02:22:40;19.40;99.90
12434;DHT22;6281;49.038;8.372;2023-08-17T02:25:08;19.60;99.90
12434;DHT22;6281;49.038;8.372;2023-08-17T02:27:34;19.50;99.90
12434;DHT22;6281;49.038;8.372;2023-08-17T02:30:03;19.60;99.90
12434;DHT22;6281;49.038;8.372;2023-08-17T02:32:30;19.60;99.90
12434;DHT22;6281;49.038;8.372;2023-08-17T02:34:57;19.50;99.90
12434;DHT22;6281;49.038;8.372;2023-08-17T02:37:24;19.50;99.90
12434;DHT22;6281;49.038;8.372;2023-08-17T02:39:50;19.40;99.90
12434;DHT22;6281;49.038;8.372;2023-08-17T02:42:17;19.60;99.90
12434;DHT22;6281;49.038;8.372;2023-08-17T02:44:44;19.50;99.90
12434;DHT22;6281;49.038;8.372;2023-08-17T02:47:12;19.40;99.90
12434;DHT22;6281;49.038;8.372;2023-08-17T02:49:39;19.50;99.90
12434;DHT22;6281;49.038;8.372;2023-08-17T02:52:06;19.40;99.90
12434;DHT22;6281;49.038;8.372;2023-08-17T02:54:32;19.40;99.90
12434;DHT22;6281;49.038;8.372;2023-08-17T02:57:00;19.50;99.90
12434;DHT22;6281;49.038;8.372;2023-08-17T02:59:26;19.30;99.90
12434;DHT22;6281;49.038;8.372;2023-08-17T03:01:54;19.40;99.90
12434;DHT22;6281;49.038;8.372;2023-08-17T03:04:22;19.40;99.90
12434;DHT22;6281;49.038;8.372;2023-08-17T03:06:49;19.30;99.90
12434;DHT22;6281;49.038;8.372;2023-08-17T03:09:16;19.40;99.90
12434;DHT22;6281;49.038;8.372;2023-08-17T03:11:43;19.30;99.90
12434;DHT22;6281;49.038;8.372;2023-08-17T03:14:10;19.20;99.90
12434;DHT22;6281;49.038;8.372;2023-08-17T03:16:36;19.20;99.90
12434;DHT22;6281;49.038;8.372;2023-08-17T03:19:03;19.30;99.90
12434;DHT22;6281;49.038;8.372;2023-08-17T03:21:33;19.10;99.90
12434;DHT22;6281;49.038;8.372;2023-08-17T03:24:00;19.20;99.90
12434;DHT22;6281;49.038;8.372;2023-08-17T03:26:27;19.20;99.90
12434;DHT22;6281;49.038;8.372;2023-08-17T03:28:53;19.10;99.90
12434;DHT22;6281;49.038;8.372;2023-08-17T03:31:20;19.10;99.90
12434;DHT22;6281;49.038;8.372;2023-08-17T03:33:47;19.10;99.90
12434;DHT22;6281;49.038;8.372;2023-08-17T03:36:14;19.20;99.90
12434;DHT22;6281;49.038;8.372;2023-08-17T03:38:42;19.10;99.90
12434;DHT22;6281;49.038;8.372;2023-08-17T03:41:10;19.10;99.90
12434;DHT22;6281;49.038;8.372;2023-08-17T03:43:37;19.00;99.90
12434;DHT22;6281;49.038;8.372;2023-08-17T03:46:04;19.00;99.90
12434;DHT22;6281;49.038;8.372;2023-08-17T03:48:31;19.00;99.90
12434;DHT22;6281;49.038;8.372;2023-08-17T03:50:57;18.90;99.90
12434;DHT22;6281;49.038;8.372;2023-08-17T03:53:24;19.00;99.90
12434;DHT22;6281;49.038;8.372;2023-08-17T03:55:52;18.90;99.90
12434;DHT22;6281;49.038;8.372;2023-08-17T03:58:19;18.90;99.90
12434;DHT22;6281;49.038;8.372;2023-08-17T04:00:49;18.80;99.90
12434;DHT22;6281;49.038;8.372;2023-08-17T04:03:16;18.80;99.90
12434;DHT22;6281;49.038;8.372;2023-08-17T04:05:42;18.80;99.90
12434;DHT22;6281;49.038;8.372;2023-08-17T04:08:09;18.90;99.90
12434;DHT22;6281;49.038;8.372;2023-08-17T04:10:36;18.70;99.90
12434;DHT22;6281;49.038;8.372;2023-08-17T04:13:04;18.80;99.90
12434;DHT22;6281;49.038;8.372;2023-08-17T04:15:31;18.90;99.90
12434;DHT22;6281;49.038;8.372;2023-08-17T04:17:58;18.90;99.90
12434;DHT22;6281;49.038;8.372;2023-08-17T04:20:24;18.90;99.90
12434;DHT22;6281;49.038;8.372;2023-08-17T04:22:51;18.90;99.90
12434;DHT22;6281;49.038;8.372;2023-08-17T04:25:18;19.00;99.90
12434;DHT22;6281;49.038;8.372;2023-08-17T04:27:45;19.00;99.90
12434;DHT22;6281;49.038;8.372;2023-08-17T04:30:14;19.10;99.90
12434;DHT22;6281;49.038;8.372;2023-08-17T04:32:41;19.10;99.90
12434;DHT22;6281;49.038;8.372;2023-08-17T04:35:08;19.00;99.90
12434;DHT22;6281;49.038;8.372;2023-08-17T04:37:36;18.90;99.90
12434;DHT22;6281;49.038;8.372;2023-08-17T04:40:03;18.90;99.90
12434;DHT22;6281;49.038;8.372;2023-08-17T04:42:30;19.00;99.90
12434;DHT22;6281;49.038;8.372;2023-08-17T04:44:57;18.90;99.90
12434;DHT22;6281;49.038;8.372;2023-08-17T04:47:25;19.00;99.90
12434;DHT22;6281;49.038;8.372;2023-08-17T04:49:52;18.80;99.90
12434;DHT22;6281;49.038;8.372;2023-08-17T04:52:19;18.90;99.90
12434;DHT22;6281;49.038;8.372;2023-08-17T04:54:45;18.80;99.90
12434;DHT22;6281;49.038;8.372;2023-08-17T04:57:12;18.90;99.90
12434;DHT22;6281;49.038;8.372;2023-08-17T04:59:40;18.90;99.90
12434;DHT22;6281;49.038;8.372;2023-08-17T05:02:07;18.80;99.90
12434;DHT22;6281;49.038;8.372;2023-08-17T05:04:35;18.90;99.90
12434;DHT22;6281;49.038;8.372;2023-08-17T05:07:02;18.80;99.90
12434;DHT22;6281;49.038;8.372;2023-08-17T05:09:29;18.90;99.90
12434;DHT22;6281;49.038;8.372;2023-08-17T05:11:56;19.00;99.90
12434;DHT22;6281;49.038;8.372;2023-08-17T05:14:22;19.00;99.90
12434;DHT22;6281;49.038;8.372;2023-08-17T05:16:49;19.00;99.90
12434;DHT22;6281;49.038;8.372;2023-08-17T05:19:16;19.10;99.90
12434;DHT22;6281;49.038;8.372;2023-08-17T05:21:44;19.10;99.90
12434;DHT22;6281;49.038;8.372;2023-08-17T05:24:11;19.20;99.90
12434;DHT22;6281;49.038;8.372;2023-08-17T05:26:38;19.20;99.90
12434;DHT22;6281;49.038;8.372;2023-08-17T05:29:05;19.10;99.90
12434;DHT22;6281;49.038;8.372;2023-08-17T05:31:31;19.20;99.90
12434;DHT22;6281;49.038;8.372;2023-08-17T05:33:58;19.40;99.90
12434;DHT22;6281;49.038;8.372;2023-08-17T05:36:25;19.40;99.90
12434;DHT22;6281;49.038;8.372;2023-08-17T05:38:53;19.40;99.90
12434;DHT22;6281;49.038;8.372;2023-08-17T05:41:20;19.50;99.90
12434;DHT22;6281;49.038;8.372;2023-08-17T05:43:48;19.50;99.90
12434;DHT22;6281;49.038;8.372;2023-08-17T05:46:15;19.50;99.90
12434;DHT22;6281;49.038;8.372;2023-08-17T05:48:41;19.60;99.90
12434;DHT22;6281;49.038;8.372;2023-08-17T05:51:08;19.60;99.90
12434;DHT22;6281;49.038;8.372;2023-08-17T05:53:35;19.70;99.90
12434;DHT22;6281;49.038;8.372;2023-08-17T05:56:03;19.70;99.90
12434;DHT22;6281;49.038;8.372;2023-08-17T05:58:30;19.80;99.90
12434;DHT22;6281;49.038;8.372;2023-08-17T06:01:04;19.70;99.90
12434;DHT22;6281;49.038;8.372;2023-08-17T06:03:31;19.80;99.90
12434;DHT22;6281;49.038;8.372;2023-08-17T06:05:58;19.80;99.90
12434;DHT22;6281;49.038;8.372;2023-08-17T06:08:25;19.80;99.90
12434;DHT22;6281;49.038;8.372;2023-08-17T06:10:51;19.80;99.90
12434;DHT22;6281;49.038;8.372;2023-08-17T06:13:20;19.90;99.90
12434;DHT22;6281;49.038;8.372;2023-08-17T06:15:46;19.90;99.90
12434;DHT22;6281;49.038;8.372;2023-08-17T06:18:13;19.90;99.90
12434;DHT22;6281;49.038;8.372;2023-08-17T06:20:40;20.00;99.90
12434;DHT22;6281;49.038;8.372;2023-08-17T06:23:07;20.00;99.90
12434;DHT22;6281;49.038;8.372;2023-08-17T06:25:34;20.00;99.90
12434;DHT22;6281;49.038;8.372;2023-08-17T06:28:01;20.10;99.90
12434;DHT22;6281;49.038;8.372;2023-08-17T06:30:29;20.20;99.90
12434;DHT22;6281;49.038;8.372;2023-08-17T06:33:03;20.10;99.90
12434;DHT22;6281;49.038;8.372;2023-08-17T06:35:31;20.10;99.90
12434;DHT22;6281;49.038;8.372;2023-08-17T06:37:58;20.20;99.90
12434;DHT22;6281;49.038;8.372;2023-08-17T06:40:25;20.30;99.90
12434;DHT22;6281;49.038;8.372;2023-08-17T06:42:52;20.30;99.90
12434;DHT22;6281;49.038;8.372;2023-08-17T06:45:20;20.40;99.90
12434;DHT22;6281;49.038;8.372;2023-08-17T06:47:49;20.50;99.90
12434;DHT22;6281;49.038;8.372;2023-08-17T06:50:16;20.70;99.90
12434;DHT22;6281;49.038;8.372;2023-08-17T06:52:43;20.70;99.90
12434;DHT22;6281;49.038;8.372;2023-08-17T06:55:10;20.70;99.90
12434;DHT22;6281;49.038;8.372;2023-08-17T06:57:37;20.70;99.90
12434;DHT22;6281;49.038;8.372;2023-08-17T07:00:05;20.80;99.90
12434;DHT22;6281;49.038;8.372;2023-08-17T07:02:32;20.70;99.90
12434;DHT22;6281;49.038;8.372;2023-08-17T07:05:01;20.70;99.90
12434;DHT22;6281;49.038;8.372;2023-08-17T07:07:29;20.90;99.90
12434;DHT22;6281;49.038;8.372;2023-08-17T07:09:57;21.00;99.90
12434;DHT22;6281;49.038;8.372;2023-08-17T07:12:23;21.00;99.90
12434;DHT22;6281;49.038;8.372;2023-08-17T07:14:50;20.90;99.90
12434;DHT22;6281;49.038;8.372;2023-08-17T07:17:17;21.00;99.90
12434;DHT22;6281;49.038;8.372;2023-08-17T07:19:44;21.10;99.90
12434;DHT22;6281;49.038;8.372;2023-08-17T07:22:12;21.00;99.90
12434;DHT22;6281;49.038;8.372;2023-08-17T07:24:39;21.10;99.90
12434;DHT22;6281;49.038;8.372;2023-08-17T07:27:05;21.20;99.90
12434;DHT22;6281;49.038;8.372;2023-08-17T07:29:32;21.20;99.90
12434;DHT22;6281;49.038;8.372;2023-08-17T07:31:59;21.30;99.90
12434;DHT22;6281;49.038;8.372;2023-08-17T07:34:27;21.50;99.90
12434;DHT22;6281;49.038;8.372;2023-08-17T07:36:55;21.40;99.90
12434;DHT22;6281;49.038;8.372;2023-08-17T07:39:23;21.50;99.90
12434;DHT22;6281;49.038;8.372;2023-08-17T07:41:50;21.60;99.90
12434;DHT22;6281;49.038;8.372;2023-08-17T07:44:17;21.70;99.90
12434;DHT22;6281;49.038;8.372;2023-08-17T07:46:44;21.80;99.90
12434;DHT22;6281;49.038;8.372;2023-08-17T07:49:11;21.90;99.90
12434;DHT22;6281;49.038;8.372;2023-08-17T07:51:38;21.80;99.90
12434;DHT22;6281;49.038;8.372;2023-08-17T07:54:05;21.90;99.90
12434;DHT22;6281;49.038;8.372;2023-08-17T07:56:33;22.10;99.90
12434;DHT22;6281;49.038;8.372;2023-08-17T07:59:00;22.00;99.90
12434;DHT22;6281;49.038;8.372;2023-08-17T08:01:27;21.80;99.90
12434;DHT22;6281;49.038;8.372;2023-08-17T08:03:54;21.90;99.90
12434;DHT22;6281;49.038;8.372;2023-08-17T08:06:20;22.00;99.90
12434;DHT22;6281;49.038;8.372;2023-08-17T08:08:48;22.00;99.90
12434;DHT22;6281;49.038;8.372;2023-08-17T08:11:15;22.10;99.90
12434;DHT22;6281;49.038;8.372;2023-08-17T08:13:43;22.10;99.90
12434;DHT22;6281;49.038;8.372;2023-08-17T08:16:10;22.10;99.90
12434;DHT22;6281;49.038;8.372;2023-08-17T08:18:37;22.20;99.90
12434;DHT22;6281;49.038;8.372;2023-08-17T08:21:04;22.30;99.90
12434;DHT22;6281;49.038;8.372;2023-08-17T08:23:30;22.30;99.90
12434;DHT22;6281;49.038;8.372;2023-08-17T08:25:57;22.30;99.90
12434;DHT22;6281;49.038;8.372;2023-08-17T08:28:24;22.30;99.90
12434;DHT22;6281;49.038;8.372;2023-08-17T08:31:04;22.40;99.90
12434;DHT22;6281;49.038;8.372;2023-08-17T08:33:31;22.60;99.90
12434;DHT22;6281;49.038;8.372;2023-08-17T08:35:57;22.40;99.90
12434;DHT22;6281;49.038;8.372;2023-08-17T08:38:24;22.60;99.90
12434;DHT22;6281;49.038;8.372;2023-08-17T08:40:51;22.50;99.90
12434;DHT22;6281;49.038;8.372;2023-08-17T08:43:18;22.40;99.90
12434;DHT22;6281;49.038;8.372;2023-08-17T08:45:45;22.60;99.90
12434;DHT22;6281;49.038;8.372;2023-08-17T08:48:18;22.60;99.90
12434;DHT22;6281;49.038;8.372;2023-08-17T08:50:46;22.90;99.90
12434;DHT22;6281;49.038;8.372;2023-08-17T08:53:14;23.20;99.90
12434;DHT22;6281;49.038;8.372;2023-08-17T08:55:47;23.40;99.90
12434;DHT22;6281;49.038;8.372;2023-08-17T08:58:16;23.10;99.90
12434;DHT22;6281;49.038;8.372;2023-08-17T09:00:46;23.00;99.90
12434;DHT22;6281;49.038;8.372;2023-08-17T09:03:15;22.90;99.90
12434;DHT22;6281;49.038;8.372;2023-08-17T09:05:44;22.90;99.90
12434;DHT22;6281;49.038;8.372;2023-08-17T09:08:13;23.10;99.90
12434;DHT22;6281;49.038;8.372;2023-08-17T09:10:41;23.20;99.90
12434;DHT22;6281;49.038;8.372;2023-08-17T09:13:08;23.60;99.90
12434;DHT22;6281;49.038;8.372;2023-08-17T09:15:35;23.70;99.90
12434;DHT22;6281;49.038;8.372;2023-08-17T09:18:05;23.90;99.90
12434;DHT22;6281;49.038;8.372;2023-08-17T09:20:38;23.70;99.90
12434;DHT22;6281;49.038;8.372;2023-08-17T09:23:10;23.00;99.90
12434;DHT22;6281;49.038;8.372;2023-08-17T09:25:39;23.20;99.90
12434;DHT22;6281;49.038;8.372;2023-08-17T09:28:10;23.80;99.90
12434;DHT22;6281;49.038;8.372;2023-08-17T09:30:56;23.90;99.90
12434;DHT22;6281;49.038;8.372;2023-08-17T09:33:25;24.20;99.90
12434;DHT22;6281;49.038;8.372;2023-08-17T09:35:54;23.90;99.90
12434;DHT22;6281;49.038;8.372;2023-08-17T09:38:21;23.90;99.90
12434;DHT22;6281;49.038;8.372;2023-08-17T09:40:48;24.40;99.90
12434;DHT22;6281;49.038;8.372;2023-08-17T09:43:16;24.70;99.90
12434;DHT22;6281;49.038;8.372;2023-08-17T09:45:44;24.80;99.90
12434;DHT22;6281;49.038;8.372;2023-08-17T09:48:14;25.10;99.90
12434;DHT22;6281;49.038;8.372;2023-08-17T09:50:42;25.00;99.90
12434;DHT22;6281;49.038;8.372;2023-08-17T09:53:13;25.90;99.90
12434;DHT22;6281;49.038;8.372;2023-08-17T09:55:41;25.50;99.90
12434;DHT22;6281;49.038;8.372;2023-08-17T09:58:08;25.40;99.90
12434;DHT22;6281;49.038;8.372;2023-08-17T10:00:36;27.80;99.90
12434;DHT22;6281;49.038;8.372;2023-08-17T10:03:05;30.30;99.90
12434;DHT22;6281;49.038;8.372;2023-08-17T10:05:37;31.50;99.90
12434;DHT22;6281;49.038;8.372;2023-08-17T10:08:06;31.80;99.90
12434;DHT22;6281;49.038;8.372;2023-08-17T10:10:37;30.80;99.90
12434;DHT22;6281;49.038;8.372;2023-08-17T10:13:09;30.70;99.90
12434;DHT22;6281;49.038;8.372;2023-08-17T10:15:38;28.90;99.90
12434;DHT22;6281;49.038;8.372;2023-08-17T10:18:13;28.80;99.90
12434;DHT22;6281;49.038;8.372;2023-08-17T10:20:44;31.50;99.90
12434;DHT22;6281;49.038;8.372;2023-08-17T10:23:15;33.60;99.90
12434;DHT22;6281;49.038;8.372;2023-08-17T10:25:45;31.70;99.90
12434;DHT22;6281;49.038;8.372;2023-08-17T10:28:15;31.20;99.90
12434;DHT22;6281;49.038;8.372;2023-08-17T10:30:44;33.40;99.90
12434;DHT22;6281;49.038;8.372;2023-08-17T10:33:12;32.50;99.90
12434;DHT22;6281;49.038;8.372;2023-08-17T10:35:39;32.30;99.90
12434;DHT22;6281;49.038;8.372;2023-08-17T10:38:07;32.40;99.90
12434;DHT22;6281;49.038;8.372;2023-08-17T10:40:39;30.20;99.90
12434;DHT22;6281;49.038;8.372;2023-08-17T10:43:07;31.40;99.90
12434;DHT22;6281;49.038;8.372;2023-08-17T10:45:35;31.80;99.90
12434;DHT22;6281;49.038;8.372;2023-08-17T10:48:28;30.90;99.90
12434;DHT22;6281;49.038;8.372;2023-08-17T10:51:03;30.20;99.90
12434;DHT22;6281;49.038;8.372;2023-08-17T10:53:36;29.00;99.90
12434;DHT22;6281;49.038;8.372;2023-08-17T10:56:10;27.40;99.90
12434;DHT22;6281;49.038;8.372;2023-08-17T10:58:39;27.20;99.90
12434;DHT22;6281;49.038;8.372;2023-08-17T11:01:06;27.40;99.90
12434;DHT22;6281;49.038;8.372;2023-08-17T11:03:33;27.50;99.90
12434;DHT22;6281;49.038;8.372;2023-08-17T11:06:14;27.00;99.90
12434;DHT22;6281;49.038;8.372;2023-08-17T11:08:52;26.80;99.90
12434;DHT22;6281;49.038;8.372;2023-08-17T11:11:20;29.90;99.90
12434;DHT22;6281;49.038;8.372;2023-08-17T11:13:50;30.10;99.90
12434;DHT22;6281;49.038;8.372;2023-08-17T11:16:18;28.70;99.90
12434;DHT22;6281;49.038;8.372;2023-08-17T11:18:46;29.10;99.90
12434;DHT22;6281;49.038;8.372;2023-08-17T11:21:14;30.90;99.90
12434;DHT22;6281;49.038;8.372;2023-08-17T11:23:41;30.60;99.90
12434;DHT22;6281;49.038;8.372;2023-08-17T11:26:08;30.10;99.90
12434;DHT22;6281;49.038;8.372;2023-08-17T11:28:36;31.30;99.90
12434;DHT22;6281;49.038;8.372;2023-08-17T11:31:13;31.30;99.90
12434;DHT22;6281;49.038;8.372;2023-08-17T11:33:41;31.80;99.90
12434;DHT22;6281;49.038;8.372;2023-08-17T11:36:08;31.60;99.90
12434;DHT22;6281;49.038;8.372;2023-08-17T11:38:37;30.20;99.90
12434;DHT22;6281;49.038;8.372;2023-08-17T11:41:04;28.80;99.90
12434;DHT22;6281;49.038;8.372;2023-08-17T11:43:32;27.40;99.90
12434;DHT22;6281;49.038;8.372;2023-08-17T11:46:00;26.80;99.90
12434;DHT22;6281;49.038;8.372;2023-08-17T11:48:29;26.20;99.90
12434;DHT22;6281;49.038;8.372;2023-08-17T11:50:56;25.90;99.90
12434;DHT22;6281;49.038;8.372;2023-08-17T11:53:24;27.40;99.90
12434;DHT22;6281;49.038;8.372;2023-08-17T11:55:51;28.00;99.90
12434;DHT22;6281;49.038;8.372;2023-08-17T11:58:18;27.80;99.90
12434;DHT22;6281;49.038;8.372;2023-08-17T12:00:45;27.10;99.90
12434;DHT22;6281;49.038;8.372;2023-08-17T12:03:15;27.10;99.90
12434;DHT22;6281;49.038;8.372;2023-08-17T12:05:44;26.90;99.90
12434;DHT22;6281;49.038;8.372;2023-08-17T12:08:13;26.60;99.90
12434;DHT22;6281;49.038;8.372;2023-08-17T12:10:40;26.20;99.90
12434;DHT22;6281;49.038;8.372;2023-08-17T12:13:11;26.70;99.90
12434;DHT22;6281;49.038;8.372;2023-08-17T12:15:38;26.90;99.90
12434;DHT22;6281;49.038;8.372;2023-08-17T12:18:05;26.70;99.90
12434;DHT22;6281;49.038;8.372;2023-08-17T12:20:33;27.40;99.90
12434;DHT22;6281;49.038;8.372;2023-08-17T12:23:05;27.90;99.90
12434;DHT22;6281;49.038;8.372;2023-08-17T12:25:32;27.80;99.90
12434;DHT22;6281;49.038;8.372;2023-08-17T12:27:59;27.60;99.90
12434;DHT22;6281;49.038;8.372;2023-08-17T12:30:27;27.90;99.90
12434;DHT22;6281;49.038;8.372;2023-08-17T12:32:55;27.80;99.90
12434;DHT22;6281;49.038;8.372;2023-08-17T12:35:22;27.90;99.90
12434;DHT22;6281;49.038;8.372;2023-08-17T12:37:50;28.70;99.90
12434;DHT22;6281;49.038;8.372;2023-08-17T12:40:19;29.20;99.90
12434;DHT22;6281;49.038;8.372;2023-08-17T12:42:46;30.00;99.90
12434;DHT22;6281;49.038;8.372;2023-08-17T12:45:14;30.00;99.90
12434;DHT22;6281;49.038;8.372;2023-08-17T12:47:41;30.00;99.90
12434;DHT22;6281;49.038;8.372;2023-08-17T12:50:08;29.40;99.90
12434;DHT22;6281;49.038;8.372;2023-08-17T12:52:35;28.80;99.90
12434;DHT22;6281;49.038;8.372;2023-08-17T12:55:03;30.10;99.90
12434;DHT22;6281;49.038;8.372;2023-08-17T12:57:31;29.80;99.90
12434;DHT22;6281;49.038;8.372;2023-08-17T12:59:58;29.90;99.90
12434;DHT22;6281;49.038;8.372;2023-08-17T13:02:25;30.30;99.90
12434;DHT22;6281;49.038;8.372;2023-08-17T13:04:52;29.90;99.90
12434;DHT22;6281;49.038;8.372;2023-08-17T13:07:18;29.30;99.90
12434;DHT22;6281;49.038;8.372;2023-08-17T13:09:45;29.50;99.90
12434;DHT22;6281;49.038;8.372;2023-08-17T13:12:12;29.50;99.90
12434;DHT22;6281;49.038;8.372;2023-08-17T13:14:41;29.00;99.90
12434;DHT22;6281;49.038;8.372;2023-08-17T13:17:07;29.10;99.90
12434;DHT22;6281;49.038;8.372;2023-08-17T13:19:34;29.10;99.90
12434;DHT22;6281;49.038;8.372;2023-08-17T13:22:01;29.30;99.90
12434;DHT22;6281;49.038;8.372;2023-08-17T13:24:29;29.20;99.90
12434;DHT22;6281;49.038;8.372;2023-08-17T13:26:56;28.80;99.90
12434;DHT22;6281;49.038;8.372;2023-08-17T13:29:23;29.20;99.90
12434;DHT22;6281;49.038;8.372;2023-08-17T13:31:51;29.60;99.90
12434;DHT22;6281;49.038;8.372;2023-08-17T13:34:18;30.00;99.90
12434;DHT22;6281;49.038;8.372;2023-08-17T13:36:45;29.50;99.90
12434;DHT22;6281;49.038;8.372;2023-08-17T13:39:12;29.70;99.90
12434;DHT22;6281;49.038;8.372;2023-08-17T13:41:40;30.10;99.90
12434;DHT22;6281;49.038;8.372;2023-08-17T13:44:08;30.40;99.90
12434;DHT22;6281;49.038;8.372;2023-08-17T13:46:35;30.00;99.90
12434;DHT22;6281;49.038;8.372;2023-08-17T13:49:03;30.10;99.90
12434;DHT22;6281;49.038;8.372;2023-08-17T13:51:30;29.70;99.90
12434;DHT22;6281;49.038;8.372;2023-08-17T13:53:57;30.30;99.90
12434;DHT22;6281;49.038;8.372;2023-08-17T13:56:24;29.90;99.90
12434;DHT22;6281;49.038;8.372;2023-08-17T13:58:51;30.40;99.90
12434;DHT22;6281;49.038;8.372;2023-08-17T14:01:18;30.70;99.90
12434;DHT22;6281;49.038;8.372;2023-08-17T14:03:45;30.70;99.90
12434;DHT22;6281;49.038;8.372;2023-08-17T14:06:13;30.60;99.90
12434;DHT22;6281;49.038;8.372;2023-08-17T14:08:41;30.90;99.90
12434;DHT22;6281;49.038;8.372;2023-08-17T14:11:08;30.70;99.90
12434;DHT22;6281;49.038;8.372;2023-08-17T14:13:35;31.10;99.90
12434;DHT22;6281;49.038;8.372;2023-08-17T14:16:02;31.00;99.90
12434;DHT22;6281;49.038;8.372;2023-08-17T14:18:31;30.80;99.90
12434;DHT22;6281;49.038;8.372;2023-08-17T14:20:58;31.60;99.90
12434;DHT22;6281;49.038;8.372;2023-08-17T14:23:26;31.80;99.90
12434;DHT22;6281;49.038;8.372;2023-08-17T14:25:53;32.30;99.90
12434;DHT22;6281;49.038;8.372;2023-08-17T14:28:20;32.00;99.90
12434;DHT22;6281;49.038;8.372;2023-08-17T14:30:47;32.10;99.90
12434;DHT22;6281;49.038;8.372;2023-08-17T14:33:14;32.10;99.90
12434;DHT22;6281;49.038;8.372;2023-08-17T14:35:41;32.20;99.90
12434;DHT22;6281;49.038;8.372;2023-08-17T14:38:08;32.60;99.90
12434;DHT22;6281;49.038;8.372;2023-08-17T14:40:42;32.80;99.90
12434;DHT22;6281;49.038;8.372;2023-08-17T14:43:10;32.90;99.90
12434;DHT22;6281;49.038;8.372;2023-08-17T14:46:07;33.00;99.90
12434;DHT22;6281;49.038;8.372;2023-08-17T14:48:34;32.70;99.90
12434;DHT22;6281;49.038;8.372;2023-08-17T14:51:01;33.10;99.90
12434;DHT22;6281;49.038;8.372;2023-08-17T14:53:28;32.80;99.90
12434;DHT22;6281;49.038;8.372;2023-08-17T14:55:56;32.80;99.90
12434;DHT22;6281;49.038;8.372;2023-08-17T14:58:23;32.60;99.90
12434;DHT22;6281;49.038;8.372;2023-08-17T15:00:51;32.50;99.90
12434;DHT22;6281;49.038;8.372;2023-08-17T15:03:17;32.70;99.90
12434;DHT22;6281;49.038;8.372;2023-08-17T15:05:44;33.40;99.90
12434;DHT22;6281;49.038;8.372;2023-08-17T15:08:11;33.60;99.90
12434;DHT22;6281;49.038;8.372;2023-08-17T15:10:38;33.20;99.90
12434;DHT22;6281;49.038;8.372;2023-08-17T15:13:06;32.40;99.90
12434;DHT22;6281;49.038;8.372;2023-08-17T15:15:33;32.40;99.90
12434;DHT22;6281;49.038;8.372;2023-08-17T15:18:02;31.90;99.90
12434;DHT22;6281;49.038;8.372;2023-08-17T15:20:29;32.20;99.90
12434;DHT22;6281;49.038;8.372;2023-08-17T15:22:56;32.50;99.90
12434;DHT22;6281;49.038;8.372;2023-08-17T15:25:23;32.50;99.90
12434;DHT22;6281;49.038;8.372;2023-08-17T15:27:50;33.00;99.90
12434;DHT22;6281;49.038;8.372;2023-08-17T15:30:18;33.00;99.90
12434;DHT22;6281;49.038;8.372;2023-08-17T15:32:45;33.00;99.90
12434;DHT22;6281;49.038;8.372;2023-08-17T15:35:12;32.40;99.90
12434;DHT22;6281;49.038;8.372;2023-08-17T15:37:39;32.00;99.90
12434;DHT22;6281;49.038;8.372;2023-08-17T15:40:07;32.10;99.90
12434;DHT22;6281;49.038;8.372;2023-08-17T15:42:37;31.40;99.90
12434;DHT22;6281;49.038;8.372;2023-08-17T15:45:04;31.50;99.90
12434;DHT22;6281;49.038;8.372;2023-08-17T15:47:33;31.40;99.90
12434;DHT22;6281;49.038;8.372;2023-08-17T15:50:00;31.20;99.90